Extreme weather reports worldwide

Thunderstorm

Station
 
Location
 
Name
 
Wind
Knots
Gust
Knots
Vis
SM
Temp/Dew
C
Baro
inHg
METAR
 
JAN KJAN Jackson, US Jackson-Medgar Wiley Evers International Airport 16 29 2 19/16 30.01 KJAN 251346Z 23016G29KT 2SM VCTS RA SCT010 BKN033 OVC070 19/17 A3001 RMK AO2 PK WND 16032/1336 WSHFT 1331 LTG DSNT N AND S AND SW RAB16 P0016 T01940167
MAA VOMM Chennai, IN Chennai International Airport 18 25 0.5 26/25 29.62 VOMM 251330Z 04018G25KT 0800 R07/1100 R25/0600 +TSRA SCT010 SCT015 FEW025CB OVC080 26/25 Q1003 TEMPO 0500 +TSRA
HKS KHKS Jackson, US Hawkins Field 13 20 5 18/15 30.01 KHKS 251342Z 23013G20KT 5SM VCTS RA SCT011 BKN022 OVC080 18/16 A3001 RMK AO2 PK WND 22035/1328 WSHFT 1319 LTG DSNT NE AND S AND SW RAB07 P0027 T01830156
K1R7 6 12 9 20/20 30.04 K1R7 251335Z AUTO 19006G12KT 9SM VCTS BKN008 OVC011 20/20 A3004 RMK AO2 LTG DSNT N AND NW PWINO
WIL HKNW Nairobi, KE Nairobi Wilson Airport 15 6.21 27/11 30.03 HKNW 251300Z 16015KT 9999 TS FEW030CB BKN031 27/11 Q1017

Station
 
Location
 
Name
 
Wind
Knots
Gust
Knots
Vis
SM
Temp/Dew
C
Baro
inHg
METAR
 
XRY LEJR Jerez de la Forntera, ES Jerez Airport 13 2.8 15/13 29.91 LEJR 251339Z 18013KT 150V210 4500 TSRA SCT025CB SCT040 OVC060 15/13 Q1013
STY SUSO Salto, UY Nueva Hesperides International Airport 12 3.73 20/18 29.91 SUSO 251300Z 19012KT 6000 TSRA FEW013 FEW040CB OVC070 20/18 Q1013
FRW FBFT Francistown, BW Francistown Airport 12 6.21 24/20 29.94 FBFT 251300Z 05012KT 010V090 9999 TS BKN020 FEW030CB SCT070 24/20 Q1014
EDL HKEL Eldoret, KE Eldoret International Airport 10 6.21 19/14 30.18 HKEL 251300Z 28010KT 9999 TS FEW010 FEW020CB BKN021 19/14 RETS Q1022
HTIB 9 6.21 24/19 29.91 HTIB 251300Z 36009KT 9999 TS SCT026 FEW027CB BKN100 24/19 Q1013
VPY FQCH Chimoio, MZ Chimoio Airport 9 6.21 33/19 29.88 FQCH 251300Z 21009KT 9999 TS BKN015 SCT020CB 33/19 Q1012 RMK CB TO V/D
PKW FBSP BW Selebi Phikwe Airport 9 6.21 24/21 29.91 FBSP 251300Z 36009KT 9999 95TS BKN030 FEW040CB FE070 24/21 Q1013
ZNZ HTZA Zanzibar, TZ Abeid Amani Karume International Airport 8 6.21 28/24 29.79 HTZA 251300Z 13008KT 9999 TS SCT016 FEW018CB 28/24 Q1009 NOSIG
UGO FNUG Uige, AO Uige Airport 8 6.21 27/21 29.82 FNUG 251300Z 36008KT 9999 TS SCT025 FEW027 BKN090 27/21 Q1010
K3R7 8 7 22/22 29.99 K3R7 251335Z AUTO 20008KT 7SM TS SCT008 BKN031 OVC060 23/23 A2999 RMK AO2 LTG DSNT N AND SW T02260226
KJVW 8 10 / 30.00 KJVW 251335Z AUTO 19008KT 10SM VCTS DZ FEW001 SCT030 OVC045 A3000 RMK AO2 LTG DSNT NE AND S
PHC DNPO Port Harcourt, NG Port Harcourt International Airport 8 4.97 30/26 29.79 DNPO 251300Z 34008KT 8000 TS BKN010 FEW020CB 30/26 Q1009 TEMPO 5000 -TSRA
BWN WBSB Bandar Seri Begawan, BN Brunei International Airport 7 2.49 25/24 29.85 WBSB 251330Z 20007KT 4000 TSRA FEW004 FEW015CB OVC150 25/24 Q1011 TEMPO 6000 -TSRA
VNX FQVL Vilanculo, MZ Vilankulo Airport 4 6.21 29/28 29.76 FQVL 251300Z 10004KT 9999 TS BKN020 FEW025CB BKN/// 29/28 Q1008 RMK CB TO V/D
NPY HTMP Mpanda, TZ Mpanda Airport 3 6.21 21/18 30.00 HTMP 251300Z 05003KT 9999 -TSRA BKN016 FEW017CB BKN070 21/18 Q1016
UPG WAAA Ujung Pandang-Celebes Island, ID Hasanuddin International Airport 2 4.35 26/25 29.79 WAAA 251330Z VRB02KT 7000 -TSRA FEW018CB FEW019 26/25 Q1009 NOSIG RMK CB IN APCH